Terminal Aerodrome Forecast
Issued by NWS

Home | Current Version | Previous Version | Text Only | Print | Product List | Glossary On
Versions: 1 2 3 4 5 6 7 8 9 10 11 12 13
000
FTUS45 KABQ 070222 AAA
TAFTCC
TAF AMD
KTCC 070222Z 0702/0724 04015KT P6SM VCSH BKN040 OVC120
      TEMPO 0702/0704 -SHRA BKN040
     FM070800 03010KT P6SM OVC030
     FM071800 06011KT P6SM BKN030=

USA.gov is the U.S. government's official web portal to all federal, state and local government web resources and services.